sensor_id;sensor_type;location;lat;lon;timestamp;pressure;altitude;pressure_sealevel;temperature
45393;BMP280;31129;44.810;10.334;2023-08-07T00:01:12;100189.00;;;21.54
45393;BMP280;31129;44.810;10.334;2023-08-07T00:03:37;100173.97;;;21.64
45393;BMP280;31129;44.810;10.334;2023-08-07T00:06:03;100173.22;;;21.71
45393;BMP280;31129;44.810;10.334;2023-08-07T00:08:28;100181.69;;;21.81
45393;BMP280;31129;44.810;10.334;2023-08-07T00:11:04;100179.69;;;21.74
45393;BMP280;31129;44.810;10.334;2023-08-07T00:13:29;100187.50;;;21.53
45393;BMP280;31129;44.810;10.334;2023-08-07T00:15:54;100178.69;;;21.39
45393;BMP280;31129;44.810;10.334;2023-08-07T00:18:20;100160.66;;;21.70
45393;BMP280;31129;44.810;10.334;2023-08-07T00:20:45;100158.78;;;21.65
45393;BMP280;31129;44.810;10.334;2023-08-07T00:23:10;100161.75;;;21.60
45393;BMP280;31129;44.810;10.334;2023-08-07T00:25:36;100177.00;;;21.44
45393;BMP280;31129;44.810;10.334;2023-08-07T00:28:01;100169.59;;;21.38
45393;BMP280;31129;44.810;10.334;2023-08-07T00:30:26;100168.44;;;21.57
45393;BMP280;31129;44.810;10.334;2023-08-07T00:32:52;100174.19;;;21.59
45393;BMP280;31129;44.810;10.334;2023-08-07T00:35:17;100170.38;;;21.39
45393;BMP280;31129;44.810;10.334;2023-08-07T00:37:43;100174.72;;;21.65
45393;BMP280;31129;44.810;10.334;2023-08-07T00:40:08;100179.75;;;21.44
45393;BMP280;31129;44.810;10.334;2023-08-07T00:42:34;100184.56;;;21.51
45393;BMP280;31129;44.810;10.334;2023-08-07T00:44:59;100174.75;;;21.57
45393;BMP280;31129;44.810;10.334;2023-08-07T00:47:26;100180.16;;;21.32
45393;BMP280;31129;44.810;10.334;2023-08-07T00:49:51;100183.69;;;21.25
45393;BMP280;31129;44.810;10.334;2023-08-07T00:52:17;100185.94;;;21.27
45393;BMP280;31129;44.810;10.334;2023-08-07T00:54:42;100179.97;;;21.38
45393;BMP280;31129;44.810;10.334;2023-08-07T00:57:11;100175.66;;;21.60
45393;BMP280;31129;44.810;10.334;2023-08-07T00:59:38;100180.38;;;21.27
45393;BMP280;31129;44.810;10.334;2023-08-07T01:02:03;100182.00;;;21.37
45393;BMP280;31129;44.810;10.334;2023-08-07T01:04:29;100183.13;;;21.19
45393;BMP280;31129;44.810;10.334;2023-08-07T01:06:55;100185.16;;;21.42
45393;BMP280;31129;44.810;10.334;2023-08-07T01:09:21;100176.13;;;21.26
45393;BMP280;31129;44.810;10.334;2023-08-07T01:11:48;100174.25;;;21.06
45393;BMP280;31129;44.810;10.334;2023-08-07T01:16:55;100179.09;;;20.98
45393;BMP280;31129;44.810;10.334;2023-08-07T01:19:23;100173.88;;;20.86
45393;BMP280;31129;44.810;10.334;2023-08-07T01:22:11;100184.78;;;21.07
45393;BMP280;31129;44.810;10.334;2023-08-07T01:24:38;100182.03;;;20.92
45393;BMP280;31129;44.810;10.334;2023-08-07T01:27:24;100184.44;;;20.88
45393;BMP280;31129;44.810;10.334;2023-08-07T01:32:29;100195.72;;;21.05
45393;BMP280;31129;44.810;10.334;2023-08-07T01:34:56;100192.00;;;20.65
45393;BMP280;31129;44.810;10.334;2023-08-07T01:37:21;100185.84;;;20.36
45393;BMP280;31129;44.810;10.334;2023-08-07T01:39:48;100186.72;;;20.23
45393;BMP280;31129;44.810;10.334;2023-08-07T01:42:14;100180.44;;;20.23
45393;BMP280;31129;44.810;10.334;2023-08-07T01:44:41;100183.97;;;20.23
45393;BMP280;31129;44.810;10.334;2023-08-07T01:47:06;100183.81;;;20.36
45393;BMP280;31129;44.810;10.334;2023-08-07T01:49:32;100180.09;;;20.34
45393;BMP280;31129;44.810;10.334;2023-08-07T01:51:57;100175.41;;;20.13
45393;BMP280;31129;44.810;10.334;2023-08-07T01:54:23;100180.06;;;20.19
45393;BMP280;31129;44.810;10.334;2023-08-07T01:56:48;100182.66;;;20.32
45393;BMP280;31129;44.810;10.334;2023-08-07T01:59:14;100183.00;;;20.21
45393;BMP280;31129;44.810;10.334;2023-08-07T02:01:39;100182.97;;;20.13
45393;BMP280;31129;44.810;10.334;2023-08-07T02:04:04;100181.81;;;20.01
45393;BMP280;31129;44.810;10.334;2023-08-07T02:06:30;100177.38;;;19.98
45393;BMP280;31129;44.810;10.334;2023-08-07T02:08:55;100176.50;;;20.03
45393;BMP280;31129;44.810;10.334;2023-08-07T02:11:21;100172.97;;;20.02
45393;BMP280;31129;44.810;10.334;2023-08-07T02:13:46;100176.06;;;19.91
45393;BMP280;31129;44.810;10.334;2023-08-07T02:16:12;100183.75;;;19.78
45393;BMP280;31129;44.810;10.334;2023-08-07T02:18:37;100185.06;;;19.84
45393;BMP280;31129;44.810;10.334;2023-08-07T02:21:02;100184.38;;;19.63
45393;BMP280;31129;44.810;10.334;2023-08-07T02:23:28;100185.31;;;19.58
45393;BMP280;31129;44.810;10.334;2023-08-07T02:25:54;100194.75;;;19.62
45393;BMP280;31129;44.810;10.334;2023-08-07T02:28:19;100197.41;;;19.76
45393;BMP280;31129;44.810;10.334;2023-08-07T02:30:45;100196.59;;;19.67
45393;BMP280;31129;44.810;10.334;2023-08-07T02:33:13;100197.88;;;19.38
45393;BMP280;31129;44.810;10.334;2023-08-07T02:35:39;100206.63;;;19.50
45393;BMP280;31129;44.810;10.334;2023-08-07T02:38:04;100193.75;;;19.52
45393;BMP280;31129;44.810;10.334;2023-08-07T02:40:30;100196.59;;;19.39
45393;BMP280;31129;44.810;10.334;2023-08-07T02:42:55;100200.25;;;19.34
45393;BMP280;31129;44.810;10.334;2023-08-07T02:45:21;100195.63;;;19.29
45393;BMP280;31129;44.810;10.334;2023-08-07T02:47:46;100198.31;;;19.42
45393;BMP280;31129;44.810;10.334;2023-08-07T02:50:12;100199.25;;;19.45
45393;BMP280;31129;44.810;10.334;2023-08-07T02:52:37;100204.59;;;19.50
45393;BMP280;31129;44.810;10.334;2023-08-07T02:55:03;100196.13;;;19.48
45393;BMP280;31129;44.810;10.334;2023-08-07T02:57:28;100205.94;;;19.28
45393;BMP280;31129;44.810;10.334;2023-08-07T02:59:54;100210.81;;;19.15
45393;BMP280;31129;44.810;10.334;2023-08-07T03:02:19;100214.44;;;19.10
45393;BMP280;31129;44.810;10.334;2023-08-07T03:04:45;100203.38;;;19.30
45393;BMP280;31129;44.810;10.334;2023-08-07T03:07:10;100214.88;;;19.14
45393;BMP280;31129;44.810;10.334;2023-08-07T03:09:35;100211.63;;;19.23
45393;BMP280;31129;44.810;10.334;2023-08-07T03:12:01;100224.84;;;19.17
45393;BMP280;31129;44.810;10.334;2023-08-07T03:14:28;100228.25;;;19.10
45393;BMP280;31129;44.810;10.334;2023-08-07T03:16:54;100215.53;;;19.07
45393;BMP280;31129;44.810;10.334;2023-08-07T03:19:19;100221.59;;;19.05
45393;BMP280;31129;44.810;10.334;2023-08-07T03:21:47;100220.41;;;19.14
45393;BMP280;31129;44.810;10.334;2023-08-07T03:24:12;100222.94;;;18.91
45393;BMP280;31129;44.810;10.334;2023-08-07T03:26:37;100226.88;;;19.16
45393;BMP280;31129;44.810;10.334;2023-08-07T03:29:03;100227.28;;;19.00
45393;BMP280;31129;44.810;10.334;2023-08-07T03:31:29;100228.75;;;19.01
45393;BMP280;31129;44.810;10.334;2023-08-07T03:33:55;100230.56;;;18.98
45393;BMP280;31129;44.810;10.334;2023-08-07T03:36:21;100226.72;;;19.01
45393;BMP280;31129;44.810;10.334;2023-08-07T03:38:47;100236.44;;;18.95
45393;BMP280;31129;44.810;10.334;2023-08-07T03:41:12;100243.75;;;18.92
45393;BMP280;31129;44.810;10.334;2023-08-07T03:43:40;100245.00;;;19.04
45393;BMP280;31129;44.810;10.334;2023-08-07T03:46:06;100237.03;;;19.01
45393;BMP280;31129;44.810;10.334;2023-08-07T03:48:31;100241.28;;;19.02
45393;BMP280;31129;44.810;10.334;2023-08-07T03:51:07;100241.63;;;18.98
45393;BMP280;31129;44.810;10.334;2023-08-07T03:53:46;100249.84;;;18.90
45393;BMP280;31129;44.810;10.334;2023-08-07T03:56:11;100243.88;;;19.00
45393;BMP280;31129;44.810;10.334;2023-08-07T03:58:37;100242.16;;;18.97
45393;BMP280;31129;44.810;10.334;2023-08-07T04:01:02;100248.44;;;18.97
45393;BMP280;31129;44.810;10.334;2023-08-07T04:03:28;100245.09;;;18.78
45393;BMP280;31129;44.810;10.334;2023-08-07T04:05:53;100245.59;;;18.89
45393;BMP280;31129;44.810;10.334;2023-08-07T04:08:21;100250.38;;;19.10
45393;BMP280;31129;44.810;10.334;2023-08-07T04:11:03;100254.00;;;19.18
45393;BMP280;31129;44.810;10.334;2023-08-07T04:13:30;100252.22;;;19.07
45393;BMP280;31129;44.810;10.334;2023-08-07T04:15:56;100256.47;;;19.08
45393;BMP280;31129;44.810;10.334;2023-08-07T04:18:21;100263.38;;;19.15
45393;BMP280;31129;44.810;10.334;2023-08-07T04:20:55;100269.91;;;19.04
45393;BMP280;31129;44.810;10.334;2023-08-07T04:23:20;100271.59;;;19.07
45393;BMP280;31129;44.810;10.334;2023-08-07T04:25:50;100271.81;;;19.09
45393;BMP280;31129;44.810;10.334;2023-08-07T04:28:15;100276.25;;;19.12
45393;BMP280;31129;44.810;10.334;2023-08-07T04:30:41;100274.34;;;19.07
45393;BMP280;31129;44.810;10.334;2023-08-07T04:33:07;100286.44;;;19.17
45393;BMP280;31129;44.810;10.334;2023-08-07T04:35:32;100284.75;;;19.56
45393;BMP280;31129;44.810;10.334;2023-08-07T04:37:58;100278.25;;;20.02
45393;BMP280;31129;44.810;10.334;2023-08-07T04:40:23;100279.81;;;19.62
45393;BMP280;31129;44.810;10.334;2023-08-07T04:42:49;100277.06;;;19.62
45393;BMP280;31129;44.810;10.334;2023-08-07T04:45:14;100286.81;;;19.63
45393;BMP280;31129;44.810;10.334;2023-08-07T04:47:39;100286.16;;;19.70
45393;BMP280;31129;44.810;10.334;2023-08-07T04:50:06;100287.66;;;19.50
45393;BMP280;31129;44.810;10.334;2023-08-07T04:52:32;100282.50;;;19.54
45393;BMP280;31129;44.810;10.334;2023-08-07T04:54:57;100280.31;;;19.53
45393;BMP280;31129;44.810;10.334;2023-08-07T04:57:22;100281.72;;;19.46
45393;BMP280;31129;44.810;10.334;2023-08-07T04:59:48;100293.56;;;19.54
45393;BMP280;31129;44.810;10.334;2023-08-07T05:02:13;100301.50;;;19.50
45393;BMP280;31129;44.810;10.334;2023-08-07T05:04:39;100304.75;;;19.62
45393;BMP280;31129;44.810;10.334;2023-08-07T05:07:05;100301.84;;;19.47
45393;BMP280;31129;44.810;10.334;2023-08-07T05:09:30;100302.72;;;19.62
45393;BMP280;31129;44.810;10.334;2023-08-07T05:11:56;100297.38;;;19.64
45393;BMP280;31129;44.810;10.334;2023-08-07T05:14:21;100293.53;;;19.47
45393;BMP280;31129;44.810;10.334;2023-08-07T05:16:47;100295.22;;;19.50
45393;BMP280;31129;44.810;10.334;2023-08-07T05:19:13;100293.03;;;19.56
45393;BMP280;31129;44.810;10.334;2023-08-07T05:21:38;100297.44;;;19.51
45393;BMP280;31129;44.810;10.334;2023-08-07T05:24:04;100285.16;;;19.39
45393;BMP280;31129;44.810;10.334;2023-08-07T05:26:30;100285.16;;;19.60
45393;BMP280;31129;44.810;10.334;2023-08-07T05:28:55;100274.78;;;19.81
45393;BMP280;31129;44.810;10.334;2023-08-07T05:31:23;100276.47;;;19.84
45393;BMP280;31129;44.810;10.334;2023-08-07T05:33:48;100288.44;;;19.79
45393;BMP280;31129;44.810;10.334;2023-08-07T05:36:14;100298.56;;;19.77
45393;BMP280;31129;44.810;10.334;2023-08-07T05:38:39;100303.03;;;19.80
45393;BMP280;31129;44.810;10.334;2023-08-07T05:41:05;100310.78;;;19.81
45393;BMP280;31129;44.810;10.334;2023-08-07T05:43:31;100310.59;;;20.07
45393;BMP280;31129;44.810;10.334;2023-08-07T05:45:56;100315.22;;;20.05
45393;BMP280;31129;44.810;10.334;2023-08-07T05:48:22;100316.88;;;20.08
45393;BMP280;31129;44.810;10.334;2023-08-07T05:50:47;100322.00;;;20.32
45393;BMP280;31129;44.810;10.334;2023-08-07T05:53:13;100321.84;;;20.38
45393;BMP280;31129;44.810;10.334;2023-08-07T05:55:39;100321.69;;;20.43
45393;BMP280;31129;44.810;10.334;2023-08-07T05:58:05;100318.22;;;20.50
45393;BMP280;31129;44.810;10.334;2023-08-07T06:00:30;100320.13;;;20.63
45393;BMP280;31129;44.810;10.334;2023-08-07T06:02:56;100313.47;;;20.66
45393;BMP280;31129;44.810;10.334;2023-08-07T06:05:22;100329.94;;;20.72
45393;BMP280;31129;44.810;10.334;2023-08-07T06:07:47;100319.44;;;20.85
45393;BMP280;31129;44.810;10.334;2023-08-07T06:10:13;100325.19;;;20.87
45393;BMP280;31129;44.810;10.334;2023-08-07T06:12:38;100341.31;;;21.04
45393;BMP280;31129;44.810;10.334;2023-08-07T06:15:04;100342.66;;;21.11
45393;BMP280;31129;44.810;10.334;2023-08-07T06:17:29;100333.00;;;21.19
45393;BMP280;31129;44.810;10.334;2023-08-07T06:19:55;100328.41;;;21.37
45393;BMP280;31129;44.810;10.334;2023-08-07T06:22:20;100329.88;;;21.38
45393;BMP280;31129;44.810;10.334;2023-08-07T06:24:45;100332.09;;;21.32
45393;BMP280;31129;44.810;10.334;2023-08-07T06:27:11;100337.31;;;21.51
45393;BMP280;31129;44.810;10.334;2023-08-07T06:29:36;100346.72;;;21.48
45393;BMP280;31129;44.810;10.334;2023-08-07T06:32:02;100342.13;;;21.58
45393;BMP280;31129;44.810;10.334;2023-08-07T06:34:27;100346.03;;;21.70
45393;BMP280;31129;44.810;10.334;2023-08-07T06:36:53;100350.28;;;21.71
45393;BMP280;31129;44.810;10.334;2023-08-07T06:39:19;100337.47;;;21.68
45393;BMP280;31129;44.810;10.334;2023-08-07T06:41:44;100338.78;;;21.74
45393;BMP280;31129;44.810;10.334;2023-08-07T06:44:11;100341.38;;;21.72
45393;BMP280;31129;44.810;10.334;2023-08-07T06:46:37;100334.88;;;21.85
45393;BMP280;31129;44.810;10.334;2023-08-07T06:49:02;100355.22;;;21.95
45393;BMP280;31129;44.810;10.334;2023-08-07T06:51:27;100353.19;;;22.03
45393;BMP280;31129;44.810;10.334;2023-08-07T06:53:53;100353.72;;;22.09
45393;BMP280;31129;44.810;10.334;2023-08-07T06:56:18;100358.56;;;22.09
45393;BMP280;31129;44.810;10.334;2023-08-07T06:58:44;100363.56;;;22.18
45393;BMP280;31129;44.810;10.334;2023-08-07T07:01:09;100350.38;;;22.11
45393;BMP280;31129;44.810;10.334;2023-08-07T07:03:35;100361.50;;;22.18
45393;BMP280;31129;44.810;10.334;2023-08-07T07:06:00;100355.72;;;22.24
45393;BMP280;31129;44.810;10.334;2023-08-07T07:08:26;100360.88;;;22.35
45393;BMP280;31129;44.810;10.334;2023-08-07T07:10:51;100355.28;;;22.43
45393;BMP280;31129;44.810;10.334;2023-08-07T07:13:16;100356.50;;;22.64
45393;BMP280;31129;44.810;10.334;2023-08-07T07:15:45;100366.25;;;22.81
45393;BMP280;31129;44.810;10.334;2023-08-07T07:18:10;100378.81;;;22.89
45393;BMP280;31129;44.810;10.334;2023-08-07T07:20:35;100364.47;;;23.00
45393;BMP280;31129;44.810;10.334;2023-08-07T07:23:01;100388.22;;;23.09
45393;BMP280;31129;44.810;10.334;2023-08-07T07:25:26;100368.66;;;23.17
45393;BMP280;31129;44.810;10.334;2023-08-07T07:27:52;100382.38;;;23.15
45393;BMP280;31129;44.810;10.334;2023-08-07T07:30:17;100384.22;;;23.20
45393;BMP280;31129;44.810;10.334;2023-08-07T07:32:42;100363.78;;;23.17
45393;BMP280;31129;44.810;10.334;2023-08-07T07:35:08;100370.06;;;23.25
45393;BMP280;31129;44.810;10.334;2023-08-07T07:37:33;100378.94;;;23.31
45393;BMP280;31129;44.810;10.334;2023-08-07T07:39:59;100365.25;;;23.26
45393;BMP280;31129;44.810;10.334;2023-08-07T07:42:24;100365.19;;;23.33
45393;BMP280;31129;44.810;10.334;2023-08-07T07:44:50;100377.56;;;23.40
45393;BMP280;31129;44.810;10.334;2023-08-07T07:47:15;100375.34;;;23.63
45393;BMP280;31129;44.810;10.334;2023-08-07T07:49:44;100375.47;;;23.48
45393;BMP280;31129;44.810;10.334;2023-08-07T07:52:10;100375.75;;;23.60
45393;BMP280;31129;44.810;10.334;2023-08-07T07:54:35;100393.16;;;23.68
45393;BMP280;31129;44.810;10.334;2023-08-07T07:57:00;100389.84;;;23.62
45393;BMP280;31129;44.810;10.334;2023-08-07T07:59:26;100386.44;;;23.71
45393;BMP280;31129;44.810;10.334;2023-08-07T08:01:51;100389.56;;;23.75
45393;BMP280;31129;44.810;10.334;2023-08-07T08:04:17;100390.25;;;23.83
45393;BMP280;31129;44.810;10.334;2023-08-07T08:06:43;100407.72;;;23.76
45393;BMP280;31129;44.810;10.334;2023-08-07T08:09:08;100414.19;;;23.86
45393;BMP280;31129;44.810;10.334;2023-08-07T08:11:34;100401.59;;;23.77
45393;BMP280;31129;44.810;10.334;2023-08-07T08:14:00;100412.00;;;23.77
45393;BMP280;31129;44.810;10.334;2023-08-07T08:16:25;100403.41;;;23.82
45393;BMP280;31129;44.810;10.334;2023-08-07T08:18:51;100403.78;;;23.86
45393;BMP280;31129;44.810;10.334;2023-08-07T08:21:16;100406.72;;;24.06
45393;BMP280;31129;44.810;10.334;2023-08-07T08:23:41;100403.03;;;24.20
45393;BMP280;31129;44.810;10.334;2023-08-07T08:26:07;100419.91;;;24.05
45393;BMP280;31129;44.810;10.334;2023-08-07T08:28:32;100428.28;;;24.05
45393;BMP280;31129;44.810;10.334;2023-08-07T08:30:58;100428.69;;;24.02
45393;BMP280;31129;44.810;10.334;2023-08-07T08:33:25;100423.88;;;24.19
45393;BMP280;31129;44.810;10.334;2023-08-07T08:35:51;100429.13;;;24.32
45393;BMP280;31129;44.810;10.334;2023-08-07T08:38:16;100430.44;;;24.14
45393;BMP280;31129;44.810;10.334;2023-08-07T08:40:42;100460.72;;;24.01
45393;BMP280;31129;44.810;10.334;2023-08-07T08:43:09;100444.19;;;24.12
45393;BMP280;31129;44.810;10.334;2023-08-07T08:45:36;100430.44;;;24.31
45393;BMP280;31129;44.810;10.334;2023-08-07T08:48:03;100433.47;;;24.43
45393;BMP280;31129;44.810;10.334;2023-08-07T08:50:29;100434.38;;;24.63
45393;BMP280;31129;44.810;10.334;2023-08-07T08:52:55;100447.06;;;24.73
45393;BMP280;31129;44.810;10.334;2023-08-07T08:55:21;100456.72;;;24.46
45393;BMP280;31129;44.810;10.334;2023-08-07T08:57:46;100456.75;;;24.72
45393;BMP280;31129;44.810;10.334;2023-08-07T09:00:13;100469.84;;;24.53
45393;BMP280;31129;44.810;10.334;2023-08-07T09:02:50;100457.75;;;24.67
45393;BMP280;31129;44.810;10.334;2023-08-07T09:05:16;100450.19;;;24.77
45393;BMP280;31129;44.810;10.334;2023-08-07T09:07:42;100462.56;;;24.84
45393;BMP280;31129;44.810;10.334;2023-08-07T09:10:08;100450.28;;;24.97
45393;BMP280;31129;44.810;10.334;2023-08-07T09:12:34;100466.91;;;24.95
45393;BMP280;31129;44.810;10.334;2023-08-07T09:15:02;100468.53;;;24.98
45393;BMP280;31129;44.810;10.334;2023-08-07T09:17:28;100459.72;;;25.01
45393;BMP280;31129;44.810;10.334;2023-08-07T09:19:57;100458.75;;;24.89
45393;BMP280;31129;44.810;10.334;2023-08-07T09:22:23;100471.47;;;25.00
45393;BMP280;31129;44.810;10.334;2023-08-07T09:24:48;100477.41;;;24.86
45393;BMP280;31129;44.810;10.334;2023-08-07T09:27:15;100466.41;;;25.06
45393;BMP280;31129;44.810;10.334;2023-08-07T09:29:40;100456.56;;;25.14
45393;BMP280;31129;44.810;10.334;2023-08-07T09:32:07;100461.78;;;25.27
45393;BMP280;31129;44.810;10.334;2023-08-07T09:34:33;100455.31;;;25.34
45393;BMP280;31129;44.810;10.334;2023-08-07T09:36:58;100450.97;;;25.14
45393;BMP280;31129;44.810;10.334;2023-08-07T09:39:24;100451.66;;;25.32
45393;BMP280;31129;44.810;10.334;2023-08-07T09:41:51;100462.22;;;25.24
45393;BMP280;31129;44.810;10.334;2023-08-07T09:44:16;100447.41;;;25.41
45393;BMP280;31129;44.810;10.334;2023-08-07T09:46:42;100446.75;;;25.59
45393;BMP280;31129;44.810;10.334;2023-08-07T09:49:08;100455.63;;;25.65
45393;BMP280;31129;44.810;10.334;2023-08-07T09:51:47;100458.28;;;25.73
45393;BMP280;31129;44.810;10.334;2023-08-07T09:54:12;100448.81;;;25.59
45393;BMP280;31129;44.810;10.334;2023-08-07T09:56:38;100446.94;;;25.71
45393;BMP280;31129;44.810;10.334;2023-08-07T09:59:04;100453.00;;;25.87
45393;BMP280;31129;44.810;10.334;2023-08-07T10:01:30;100449.91;;;25.83
45393;BMP280;31129;44.810;10.334;2023-08-07T10:03:56;100457.09;;;25.76
45393;BMP280;31129;44.810;10.334;2023-08-07T10:06:21;100456.50;;;25.68
45393;BMP280;31129;44.810;10.334;2023-08-07T10:08:48;100450.22;;;25.87
45393;BMP280;31129;44.810;10.334;2023-08-07T10:11:14;100453.78;;;25.97
45393;BMP280;31129;44.810;10.334;2023-08-07T10:13:40;100451.22;;;25.91
45393;BMP280;31129;44.810;10.334;2023-08-07T10:16:06;100471.09;;;25.95
45393;BMP280;31129;44.810;10.334;2023-08-07T10:18:31;100450.66;;;26.02
45393;BMP280;31129;44.810;10.334;2023-08-07T10:20:57;100449.63;;;26.07
45393;BMP280;31129;44.810;10.334;2023-08-07T10:23:22;100440.66;;;26.09
45393;BMP280;31129;44.810;10.334;2023-08-07T10:25:48;100452.91;;;26.23
45393;BMP280;31129;44.810;10.334;2023-08-07T10:28:16;100449.34;;;26.22
45393;BMP280;31129;44.810;10.334;2023-08-07T10:30:42;100453.03;;;26.15
45393;BMP280;31129;44.810;10.334;2023-08-07T10:33:08;100444.63;;;26.35
45393;BMP280;31129;44.810;10.334;2023-08-07T10:35:34;100447.72;;;26.39
45393;BMP280;31129;44.810;10.334;2023-08-07T10:38:07;100455.25;;;26.46
45393;BMP280;31129;44.810;10.334;2023-08-07T10:40:33;100457.00;;;26.41
45393;BMP280;31129;44.810;10.334;2023-08-07T10:43:17;100458.31;;;26.40
45393;BMP280;31129;44.810;10.334;2023-08-07T10:45:42;100448.47;;;26.58
45393;BMP280;31129;44.810;10.334;2023-08-07T10:48:10;100452.44;;;26.55
45393;BMP280;31129;44.810;10.334;2023-08-07T10:50:55;100468.16;;;26.70
45393;BMP280;31129;44.810;10.334;2023-08-07T10:55:55;100455.50;;;26.69
45393;BMP280;31129;44.810;10.334;2023-08-07T10:58:24;100450.81;;;26.62
45393;BMP280;31129;44.810;10.334;2023-08-07T11:00:51;100452.97;;;26.83
45393;BMP280;31129;44.810;10.334;2023-08-07T11:03:20;100451.03;;;26.85
45393;BMP280;31129;44.810;10.334;2023-08-07T11:05:45;100444.56;;;26.83
45393;BMP280;31129;44.810;10.334;2023-08-07T11:08:11;100442.34;;;26.91
45393;BMP280;31129;44.810;10.334;2023-08-07T11:10:37;100449.69;;;26.96
45393;BMP280;31129;44.810;10.334;2023-08-07T11:13:02;100429.22;;;26.93
45393;BMP280;31129;44.810;10.334;2023-08-07T11:15:27;100440.00;;;26.87
45393;BMP280;31129;44.810;10.334;2023-08-07T11:17:53;100441.91;;;26.85
45393;BMP280;31129;44.810;10.334;2023-08-07T11:20:19;100433.09;;;26.69
45393;BMP280;31129;44.810;10.334;2023-08-07T11:22:44;100439.13;;;26.85
45393;BMP280;31129;44.810;10.334;2023-08-07T11:25:10;100429.94;;;27.03
45393;BMP280;31129;44.810;10.334;2023-08-07T11:27:36;100429.97;;;27.25
45393;BMP280;31129;44.810;10.334;2023-08-07T11:30:02;100432.31;;;27.28
45393;BMP280;31129;44.810;10.334;2023-08-07T11:32:27;100441.19;;;27.25
45393;BMP280;31129;44.810;10.334;2023-08-07T11:34:53;100418.38;;;27.09
45393;BMP280;31129;44.810;10.334;2023-08-07T11:37:19;100439.13;;;27.25
45393;BMP280;31129;44.810;10.334;2023-08-07T11:39:44;100436.78;;;27.22
45393;BMP280;31129;44.810;10.334;2023-08-07T11:42:10;100444.59;;;27.23
45393;BMP280;31129;44.810;10.334;2023-08-07T11:44:35;100430.72;;;27.15
45393;BMP280;31129;44.810;10.334;2023-08-07T11:47:00;100426.03;;;27.39
45393;BMP280;31129;44.810;10.334;2023-08-07T11:49:26;100437.16;;;27.28
45393;BMP280;31129;44.810;10.334;2023-08-07T11:51:51;100435.19;;;27.40
45393;BMP280;31129;44.810;10.334;2023-08-07T11:54:16;100441.13;;;27.34
45393;BMP280;31129;44.810;10.334;2023-08-07T11:56:42;100460.78;;;27.34
45393;BMP280;31129;44.810;10.334;2023-08-07T11:59:08;100447.66;;;27.27
45393;BMP280;31129;44.810;10.334;2023-08-07T12:01:36;100434.34;;;27.37
45393;BMP280;31129;44.810;10.334;2023-08-07T12:06:31;100443.72;;;27.73
45393;BMP280;31129;44.810;10.334;2023-08-07T12:08:56;100430.22;;;27.81
45393;BMP280;31129;44.810;10.334;2023-08-07T12:11:22;100436.75;;;27.74
45393;BMP280;31129;44.810;10.334;2023-08-07T12:13:48;100437.22;;;27.91
45393;BMP280;31129;44.810;10.334;2023-08-07T12:16:14;100436.22;;;27.87
45393;BMP280;31129;44.810;10.334;2023-08-07T12:18:47;100451.72;;;27.88
45393;BMP280;31129;44.810;10.334;2023-08-07T12:21:19;100437.81;;;28.11
45393;BMP280;31129;44.810;10.334;2023-08-07T12:23:45;100438.06;;;28.15
45393;BMP280;31129;44.810;10.334;2023-08-07T12:26:14;100443.22;;;28.19
45393;BMP280;31129;44.810;10.334;2023-08-07T12:28:40;100448.31;;;28.43
45393;BMP280;31129;44.810;10.334;2023-08-07T12:31:05;100433.44;;;28.20
45393;BMP280;31129;44.810;10.334;2023-08-07T12:33:32;100451.31;;;28.24
45393;BMP280;31129;44.810;10.334;2023-08-07T12:35:58;100434.91;;;28.21
45393;BMP280;31129;44.810;10.334;2023-08-07T12:41:07;100424.53;;;28.68
45393;BMP280;31129;44.810;10.334;2023-08-07T12:43:33;100431.75;;;28.82
45393;BMP280;31129;44.810;10.334;2023-08-07T12:45:58;100438.41;;;28.42
45393;BMP280;31129;44.810;10.334;2023-08-07T12:48:24;100423.81;;;28.67
45393;BMP280;31129;44.810;10.334;2023-08-07T12:50:52;100421.00;;;28.79
45393;BMP280;31129;44.810;10.334;2023-08-07T12:53:17;100422.38;;;29.01
45393;BMP280;31129;44.810;10.334;2023-08-07T12:55:42;100427.13;;;28.75
45393;BMP280;31129;44.810;10.334;2023-08-07T12:58:08;100427.00;;;28.96
45393;BMP280;31129;44.810;10.334;2023-08-07T13:00:33;100425.50;;;28.84
45393;BMP280;31129;44.810;10.334;2023-08-07T13:02:59;100423.94;;;29.04
45393;BMP280;31129;44.810;10.334;2023-08-07T13:05:24;100454.00;;;29.25
45393;BMP280;31129;44.810;10.334;2023-08-07T13:07:51;100424.44;;;28.89
45393;BMP280;31129;44.810;10.334;2023-08-07T13:10:19;100430.03;;;28.77
45393;BMP280;31129;44.810;10.334;2023-08-07T13:12:45;100419.28;;;28.74
45393;BMP280;31129;44.810;10.334;2023-08-07T13:15:12;100425.16;;;28.89
45393;BMP280;31129;44.810;10.334;2023-08-07T13:17:38;100424.53;;;29.37
45393;BMP280;31129;44.810;10.334;2023-08-07T13:20:04;100430.91;;;29.26
45393;BMP280;31129;44.810;10.334;2023-08-07T13:22:39;100424.19;;;29.31
45393;BMP280;31129;44.810;10.334;2023-08-07T13:25:06;100421.00;;;29.25
45393;BMP280;31129;44.810;10.334;2023-08-07T13:27:32;100418.03;;;29.83
45393;BMP280;31129;44.810;10.334;2023-08-07T13:29:58;100428.16;;;29.51
45393;BMP280;31129;44.810;10.334;2023-08-07T13:32:23;100451.56;;;29.31
45393;BMP280;31129;44.810;10.334;2023-08-07T13:34:49;100423.34;;;29.66
45393;BMP280;31129;44.810;10.334;2023-08-07T13:37:14;100425.00;;;29.82
45393;BMP280;31129;44.810;10.334;2023-08-07T13:39:40;100433.38;;;29.69
45393;BMP280;31129;44.810;10.334;2023-08-07T13:42:05;100425.09;;;29.59
45393;BMP280;31129;44.810;10.334;2023-08-07T13:44:31;100425.75;;;29.83
45393;BMP280;31129;44.810;10.334;2023-08-07T13:46:56;100429.19;;;29.81
45393;BMP280;31129;44.810;10.334;2023-08-07T13:49:22;100451.69;;;29.93
45393;BMP280;31129;44.810;10.334;2023-08-07T13:51:48;100442.94;;;30.00